createdAt,value
2023-05-08T00:01:58.260Z,0.00
2023-05-08T00:16:58.448Z,0.00
2023-05-08T00:31:58.432Z,0.00
2023-05-08T00:47:01.216Z,0.00
2023-05-08T01:02:02.728Z,0.00
2023-05-08T01:17:03.243Z,0.00
2023-05-08T01:32:03.421Z,0.00
2023-05-08T01:47:04.043Z,0.00
2023-05-08T02:02:04.355Z,0.00
2023-05-08T02:17:04.619Z,0.00
2023-05-08T02:32:04.771Z,0.00
2023-05-08T02:47:06.939Z,4.00
2023-05-08T03:02:07.724Z,16.00
2023-05-08T03:17:07.784Z,104.00
2023-05-08T03:32:07.944Z,360.00
2023-05-08T03:47:08.465Z,904.00
2023-05-08T04:02:08.751Z,1732.00
2023-05-08T04:17:08.993Z,2736.00
2023-05-08T04:32:09.048Z,4776.00
2023-05-08T04:47:09.237Z,4520.00
2023-05-08T05:02:09.514Z,5312.00
2023-05-08T05:17:09.686Z,5968.00
2023-05-08T05:32:10.030Z,6352.00
2023-05-08T05:47:10.461Z,6668.00
2023-05-08T06:02:10.657Z,6868.00
2023-05-08T06:17:10.661Z,7056.00
2023-05-08T06:32:11.009Z,7088.00
2023-05-08T06:47:11.467Z,7188.00
2023-05-08T07:02:11.742Z,7252.00
2023-05-08T07:17:12.083Z,7384.00
2023-05-08T07:32:12.029Z,7464.00
2023-05-08T07:47:12.482Z,7540.00
2023-05-08T08:02:12.399Z,7636.00
2023-05-08T08:17:12.804Z,7772.00
2023-05-08T08:32:12.738Z,8040.00
2023-05-08T08:47:12.746Z,8456.00
2023-05-08T09:02:13.438Z,9944.00
2023-05-08T09:17:14.417Z,12532.00
2023-05-08T09:32:15.104Z,8196.00
2023-05-08T09:47:15.858Z,8436.00
2023-05-08T10:02:16.340Z,30848.00
2023-05-08T10:17:17.342Z,8792.00
2023-05-08T10:32:18.484Z,37728.00
2023-05-08T10:47:18.528Z,38752.00
2023-05-08T11:02:18.905Z,46976.00
2023-05-08T11:17:19.000Z,63488.00
2023-05-08T11:32:19.629Z,62400.00
2023-05-08T11:47:19.859Z,63392.00
2023-05-08T12:02:20.612Z,79872.00
2023-05-08T12:17:20.623Z,68288.00
2023-05-08T12:32:20.653Z,71552.00
2023-05-08T12:47:20.746Z,79648.00
2023-05-08T13:02:21.041Z,80000.00
2023-05-08T13:17:20.904Z,83104.00
2023-05-08T13:32:21.097Z,68864.00
2023-05-08T13:47:22.058Z,75936.00
2023-05-08T14:02:22.415Z,74400.00
2023-05-08T14:17:23.224Z,65632.00
2023-05-08T14:32:23.439Z,72800.00
2023-05-08T14:47:23.473Z,75264.00
2023-05-08T15:02:23.739Z,56352.00
2023-05-08T15:17:24.586Z,54656.00
2023-05-08T15:32:25.136Z,54016.00
2023-05-08T15:47:25.823Z,54752.00
2023-05-08T16:02:26.501Z,40160.00
2023-05-08T16:17:27.556Z,47424.00
2023-05-08T16:32:28.063Z,4672.00
2023-05-08T16:47:27.966Z,3972.00
2023-05-08T17:02:28.305Z,3292.00
2023-05-08T17:17:29.910Z,2808.00
2023-05-08T17:32:30.397Z,2384.00
2023-05-08T17:47:30.695Z,1940.00
2023-05-08T18:02:31.518Z,1480.00
2023-05-08T18:17:31.736Z,976.00
2023-05-08T18:32:31.946Z,496.00
2023-05-08T18:47:35.215Z,144.00
2023-05-08T19:02:35.366Z,28.00
2023-05-08T19:17:35.667Z,0.00
2023-05-08T19:32:39.991Z,0.00
2023-05-08T19:47:40.947Z,0.00
2023-05-08T20:02:41.485Z,0.00
2023-05-08T20:17:41.517Z,0.00
2023-05-08T20:32:42.009Z,0.00
2023-05-08T20:47:42.988Z,0.00
2023-05-08T21:02:43.453Z,0.00
2023-05-08T21:17:43.523Z,0.00
2023-05-08T21:32:43.701Z,0.00
2023-05-08T21:47:44.024Z,0.00
2023-05-08T22:02:44.306Z,0.00
2023-05-08T22:17:44.390Z,0.00
2023-05-08T22:32:46.034Z,0.00
2023-05-08T22:47:46.301Z,0.00
2023-05-08T23:02:46.369Z,0.00
2023-05-08T23:17:46.932Z,0.00
2023-05-08T23:32:47.236Z,0.00
2023-05-08T23:47:47.082Z,0.00
